Time;durP1;ratioP1;P1;durP2;ratioP2;P2;SDS_P1;SDS_P2;PMS_P1;PMS_P2;Temp;Humidity;BMP_temperature;BMP_pressure;BME280_temperature;BME280_humidity;BME280_pressure;Samples;Min_cycle;Max_cycle;Signal;HPM_P1;HPM_P2
2022/09/16 00:00:05;;;;;;;0.00;0.00;;;;;;;16.11;57.35;101480.72;7357271;19;20068;-57
2022/09/16 00:02:31;;;;;;;0.00;0.00;;;;;;;16.06;56.77;101477.38;7359752;19;20028;-58
2022/09/16 00:04:56;;;;;;;0.00;0.00;;;;;;;16.01;57.60;101479.28;7359409;19;20010;-58
2022/09/16 00:07:22;;;;;;;0.00;0.00;;;;;;;15.97;57.13;101482.97;7366179;19;20584;-58
2022/09/16 00:09:47;;;;;;;0.00;0.00;;;;;;;15.93;57.35;101484.81;7364248;19;20876;-58
2022/09/16 00:12:12;;;;;;;0.00;0.00;;;;;;;15.91;57.61;101488.41;7366249;19;20014;-58
2022/09/16 00:14:38;;;;;;;0.00;0.00;;;;;;;15.87;57.46;101482.41;7365063;19;20010;-58
2022/09/16 00:17:03;;;;;;;0.00;0.00;;;;;;;15.86;57.05;101491.19;7364879;19;20034;-57
2022/09/16 00:19:29;;;;;;;0.00;0.00;;;;;;;15.82;57.19;101486.94;7364296;19;20006;-57
2022/09/16 00:21:54;;;;;;;0.00;0.00;;;;;;;15.79;57.27;101490.53;7365788;19;20014;-58
2022/09/16 00:24:20;;;;;;;0.00;0.00;;;;;;;15.76;57.86;101493.28;7362868;19;20039;-56
2022/09/16 00:26:45;;;;;;;0.00;0.00;;;;;;;15.72;57.35;101489.00;7363835;19;20469;-56
2022/09/16 00:29:11;;;;;;;0.00;0.00;;;;;;;15.63;57.63;101488.41;7364751;19;20021;-58
2022/09/16 00:31:37;;;;;;;0.00;0.00;;;;;;;15.71;57.50;101497.81;7365926;19;20014;-57
2022/09/16 00:34:02;;;;;;;0.00;0.00;;;;;;;15.69;57.75;101506.66;7365739;19;20610;-57
2022/09/16 00:36:29;;;;;;;0.00;0.00;;;;;;;15.70;57.97;101500.47;7364057;19;20006;-58
2022/09/16 00:38:54;;;;;;;0.00;0.00;;;;;;;15.58;58.12;101485.91;7364153;19;20070;-58
2022/09/16 00:41:23;;;;;;;0.10;0.10;;;;;;;15.59;57.66;101485.00;7364547;19;20710;-57
2022/09/16 00:44:02;;;;;;;0.00;0.00;;;;;;;15.69;56.84;101507.53;7365681;19;20021;-58
2022/09/16 00:46:39;;;;;;;0.00;0.00;;;;;;;15.67;57.19;101512.00;7361963;19;20015;-58
2022/09/16 00:49:13;;;;;;;0.00;0.00;;;;;;;15.63;57.30;101512.97;7363459;19;20517;-58
2022/09/16 00:51:41;;;;;;;0.00;0.00;;;;;;;15.57;57.99;101516.63;7362480;19;20953;-58
2022/09/16 00:54:08;;;;;;;0.00;0.00;;;;;;;15.53;57.98;101519.41;7365020;19;20039;-56
2022/09/16 00:56:39;;;;;;;0.00;0.00;;;;;;;15.46;57.77;101507.31;7363500;19;20049;-58
2022/09/16 00:59:13;;;;;;;0.00;0.00;;;;;;;15.42;57.70;101510.97;7365341;19;20017;-57
2022/09/16 01:01:41;;;;;;;0.00;0.00;;;;;;;15.34;58.13;101502.44;7362868;19;20913;-58
2022/09/16 01:04:21;;;;;;;0.00;0.00;;;;;;;15.31;57.34;101509.53;7364176;19;20042;-57
2022/09/16 01:06:48;;;;;;;0.00;0.00;;;;;;;15.23;58.14;101510.66;7363802;19;20481;-58
2022/09/16 01:09:19;;;;;;;0.00;0.00;;;;;;;15.16;57.92;101509.97;7362632;19;20908;-59
2022/09/16 01:11:45;;;;;;;0.00;0.00;;;;;;;15.12;58.53;101516.22;7363641;19;20034;-56
2022/09/16 01:17:29;;;;;;;0.00;0.00;;;;;;;15.03;57.14;101524.38;7361707;19;20114;-58
2022/09/16 01:20:12;;;;;;;0.00;0.00;;;;;;;14.96;57.58;101518.41;7261680;19;2004276;-55
2022/09/16 01:22:51;;;;;;;0.00;0.00;;;;;;;14.90;58.02;101520.34;7361091;19;20093;-58
2022/09/16 01:25:34;;;;;;;0.00;0.00;;;;;;;14.84;57.54;101521.38;7363288;19;20011;-58
2022/09/16 01:28:31;;;;;;;0.00;0.00;;;;;;;14.70;57.56;101513.88;7363331;19;20030;-58
2022/09/16 01:31:15;;;;;;;0.00;0.00;;;;;;;14.71;57.88;101534.00;7260699;19;2004484;-58
2022/09/16 01:33:47;;;;;;;0.00;0.00;;;;;;;14.64;59.21;101521.91;7362003;19;20030;-58
2022/09/16 01:36:29;;;;;;;0.00;0.00;;;;;;;14.61;59.07;101521.16;7362673;19;20056;-59
2022/09/16 01:39:13;;;;;;;0.00;0.00;;;;;;;14.57;58.19;101535.25;7363099;19;20025;-57
2022/09/16 01:42:17;;;;;;;0.00;0.00;;;;;;;14.53;57.89;101544.97;7363192;19;20010;-58
2022/09/16 01:44:57;;;;;;;0.00;0.00;;;;;;;14.47;58.60;101538.13;7261751;19;2004239;-58
2022/09/16 01:47:32;;;;;;;0.00;0.00;;;;;;;14.43;58.58;101535.56;7362751;19;20019;-58
2022/09/16 01:50:16;;;;;;;0.00;0.00;;;;;;;14.38;59.48;101534.81;7363769;19;20871;-58
2022/09/16 01:53:07;;;;;;;0.00;0.00;;;;;;;14.32;59.05;101542.88;7364496;19;20014;-58
2022/09/16 01:55:47;;;;;;;0.00;0.00;;;;;;;14.25;59.45;101543.03;7260272;19;2004343;-58
2022/09/16 01:58:28;;;;;;;0.00;0.00;;;;;;;14.22;58.69;101542.22;7355060;19;20089;-58
2022/09/16 02:01:02;;;;;;;0.00;0.00;;;;;;;14.16;59.77;101551.13;7366492;19;20693;-58
2022/09/16 02:03:34;;;;;;;0.00;0.00;;;;;;;14.12;60.15;101543.34;7356120;19;20006;-58
2022/09/16 02:06:08;;;;;;;0.00;0.00;;;;;;;14.00;59.84;101528.75;7363403;19;20006;-58
2022/09/16 02:08:49;;;;;;;0.00;0.00;;;;;;;14.03;59.45;101544.41;7363565;19;20976;-61
2022/09/16 02:11:17;;;;;;;0.00;0.00;;;;;;;13.98;60.78;101546.28;7360589;19;20017;-60
2022/09/16 02:14:00;;;;;;;0.00;0.00;;;;;;;13.95;59.43;101551.63;7364956;19;20018;-60
2022/09/16 02:16:37;;;;;;;0.00;0.00;;;;;;;13.84;59.78;101538.75;7363063;19;20359;-60
2022/09/16 02:19:10;;;;;;;0.00;0.00;;;;;;;13.87;60.09;101548.31;7360361;19;20007;-60
2022/09/16 02:21:38;;;;;;;0.00;0.00;;;;;;;13.81;60.74;101543.19;7363957;19;20603;-60
2022/09/16 02:24:10;;;;;;;0.00;0.00;;;;;;;13.77;60.75;101548.50;7363628;19;20007;-59
2022/09/16 02:26:41;;;;;;;0.00;0.00;;;;;;;13.72;60.69;101547.75;7364071;19;20021;-60
2022/09/16 02:29:14;;;;;;;0.00;0.00;;;;;;;13.69;60.18;101545.22;7362197;19;20704;-59
2022/09/16 02:31:42;;;;;;;0.00;0.00;;;;;;;13.65;61.01;101548.78;7362849;19;20070;-59
2022/09/16 02:34:12;;;;;;;;;;;;;;;13.63;58.85;101544.47;7363056;19;20010;-59
2022/09/16 02:36:42;;;;;;;0.00;0.00;;;;;;;13.59;60.83;101537.56;7364900;19;19922;-60
2022/09/16 02:39:10;;;;;;;0.00;0.00;;;;;;;13.54;61.21;101544.69;7361794;19;20598;-58
2022/09/16 02:41:38;;;;;;;0.00;0.00;;;;;;;13.48;61.28;101554.41;7363856;19;20018;-60
2022/09/16 02:44:04;;;;;;;;;;;;;;;13.48;58.67;101556.16;7364076;19;20010;-60
2022/09/16 02:47:00;;;;;;;0.00;0.00;;;;;;;13.44;60.42;101555.38;7363081;19;19931;-59
2022/09/16 02:49:52;;;;;;;0.00;0.00;;;;;;;13.40;60.24;101552.84;7262054;19;2004536;-58
2022/09/16 02:52:31;;;;;;;0.00;0.00;;;;;;;13.35;61.33;101562.56;7357849;19;20012;-58
2022/09/16 02:55:23;;;;;;;0.00;0.00;;;;;;;13.29;61.51;101550.44;7364298;19;20050;-56
2022/09/16 02:57:49;;;;;;;0.00;0.00;;;;;;;13.26;61.34;101549.63;7260231;19;2004392;-58
2022/09/16 03:00:15;;;;;;;0.00;0.00;;;;;;;13.22;61.29;101560.16;7362087;19;20010;-58
2022/09/16 03:02:40;;;;;;;0.00;0.00;;;;;;;13.06;61.81;101532.50;7362725;19;20018;-56
2022/09/16 03:05:08;;;;;;;0.00;0.00;;;;;;;13.16;61.75;101548.91;7353021;19;20022;-60
2022/09/16 03:07:34;;;;;;;0.00;0.00;;;;;;;13.12;61.45;101547.22;7364615;19;20014;-59
2022/09/16 03:09:59;;;;;;;0.00;0.00;;;;;;;13.07;61.59;101544.69;7357684;19;20044;-60
2022/09/16 03:12:48;;;;;;;0.00;0.00;;;;;;;13.07;60.43;101543.84;7362154;19;20013;-60
2022/09/16 03:15:41;;;;;;;0.00;0.00;;;;;;;13.03;60.60;101539.53;7361619;19;20014;-59
2022/09/16 03:18:12;;;;;;;0.00;0.00;;;;;;;12.99;61.84;101547.50;7256059;19;2004507;-59
2022/09/16 03:21:03;;;;;;;0.00;0.00;;;;;;;12.96;61.80;101541.44;7362935;19;20035;-60
2022/09/16 03:23:44;;;;;;;0.00;0.00;;;;;;;12.93;60.95;101546.75;7260399;19;2004434;-60
2022/09/16 03:26:41;;;;;;;0.00;0.00;;;;;;;12.90;61.43;101544.16;7362026;19;20026;-60
2022/09/16 03:29:17;;;;;;;0.00;0.00;;;;;;;12.83;61.40;101540.81;7260545;19;2004465;-61
2022/09/16 03:32:08;;;;;;;0.00;0.00;;;;;;;12.81;61.41;101542.56;7361894;19;20019;-60
2022/09/16 03:34:43;;;;;;;0.00;0.00;;;;;;;12.77;61.38;101551.38;7261391;19;2004659;-60
2022/09/16 03:37:14;;;;;;;0.00;0.00;;;;;;;12.72;62.35;101554.13;7362383;19;20355;-60
2022/09/16 03:39:40;;;;;;;0.00;0.00;;;;;;;12.69;62.62;101548.91;7364318;19;20010;-60
2022/09/16 03:42:10;;;;;;;0.00;0.00;;;;;;;12.68;62.40;101552.44;7370890;19;20527;-59
2022/09/16 03:44:39;;;;;;;0.00;0.00;;;;;;;12.65;61.87;101549.00;7368599;19;21169;-60
2022/09/16 03:47:08;;;;;;;0.00;0.00;;;;;;;12.62;62.44;101546.41;7369127;19;20006;-60
2022/09/16 03:49:34;;;;;;;0.00;0.00;;;;;;;12.60;62.17;101554.31;7369311;19;20021;-60
2022/09/16 03:52:00;;;;;;;0.00;0.00;;;;;;;12.58;62.67;101556.09;7366362;19;20019;-60
2022/09/16 03:54:25;;;;;;;0.00;0.00;;;;;;;12.55;62.60;101553.53;7369690;19;20015;-60
2022/09/16 03:56:51;;;;;;;0.00;0.00;;;;;;;12.53;62.49;101560.56;7369324;19;20007;-60
2022/09/16 03:59:16;;;;;;;0.00;0.00;;;;;;;12.52;62.70;101561.47;7367902;19;20029;-59
2022/09/16 04:01:42;;;;;;;0.00;0.00;;;;;;;12.48;62.58;101557.16;7369153;19;20488;-59
2022/09/16 04:04:08;;;;;;;0.00;0.00;;;;;;;12.45;62.85;101557.19;7369488;19;20094;-60
2022/09/16 04:06:34;;;;;;;0.00;0.00;;;;;;;12.43;63.11;101556.38;7367888;19;20073;-60
2022/09/16 04:09:02;;;;;;;0.00;0.00;;;;;;;12.43;62.55;101562.47;7370078;19;20006;-61
2022/09/16 04:11:30;;;;;;;0.00;0.00;;;;;;;12.39;63.16;101559.91;7367855;19;20020;-57
2022/09/16 04:13:56;;;;;;;0.00;0.00;;;;;;;12.39;63.27;101559.91;7367808;19;20010;-60
2022/09/16 04:16:21;;;;;;;0.00;0.00;;;;;;;12.37;63.05;101559.09;7369266;19;20025;-60
2022/09/16 04:18:47;;;;;;;0.00;0.00;;;;;;;12.35;63.38;101553.84;7367075;19;20022;-60
2022/09/16 04:21:12;;;;;;;0.00;0.00;;;;;;;12.34;63.04;101556.50;7366945;19;20015;-60
2022/09/16 04:23:37;;;;;;;0.00;0.00;;;;;;;12.26;63.54;101543.53;7365423;19;20463;-57
2022/09/16 04:26:03;;;;;;;0.00;0.00;;;;;;;12.31;63.16;101556.56;7369365;19;20018;-60
2022/09/16 04:28:30;;;;;;;0.00;0.00;;;;;;;12.29;63.54;101553.09;7367926;19;20060;-59
2022/09/16 04:31:00;;;;;;;0.00;0.00;;;;;;;12.28;62.82;101551.38;7365768;19;20010;-60
2022/09/16 04:33:30;;;;;;;0.00;0.00;;;;;;;12.27;63.33;101554.91;7368300;19;20364;-60
2022/09/16 04:36:13;;;;;;;0.00;0.00;;;;;;;12.25;62.43;101556.66;7367914;19;20007;-60
2022/09/16 04:38:40;;;;;;;0.00;0.00;;;;;;;12.20;63.32;101554.97;7366532;19;20073;-60
2022/09/16 04:41:06;;;;;;;0.00;0.00;;;;;;;12.20;63.31;101561.97;7367906;19;20094;-60
2022/09/16 04:43:31;;;;;;;0.00;0.00;;;;;;;12.13;63.68;101563.81;7367903;19;20027;-60
2022/09/16 04:45:57;;;;;;;0.00;0.00;;;;;;;12.17;63.64;101569.88;7367199;19;20002;-60
2022/09/16 04:48:24;;;;;;;0.00;0.00;;;;;;;12.15;63.22;101572.50;7368153;19;20007;-59
2022/09/16 04:50:50;;;;;;;0.00;0.00;;;;;;;12.14;63.24;101583.88;7366549;19;20002;-60
2022/09/16 04:53:16;;;;;;;0.00;0.00;;;;;;;12.12;63.22;101577.81;7364994;19;20104;-60
2022/09/16 04:55:42;;;;;;;0.00;0.00;;;;;;;12.10;63.58;101582.19;7364937;19;20094;-60
2022/09/16 04:58:07;;;;;;;0.00;0.00;;;;;;;12.08;63.39;101576.13;7367966;19;20022;-60
2022/09/16 05:00:33;;;;;;;0.00;0.00;;;;;;;12.06;63.63;101577.88;7366034;19;20415;-60
2022/09/16 05:02:58;;;;;;;0.00;0.00;;;;;;;12.05;63.81;101578.75;7370038;19;20013;-59
2022/09/16 05:05:23;;;;;;;0.00;0.00;;;;;;;12.02;63.78;101578.84;7367857;19;20022;-59
2022/09/16 05:07:49;;;;;;;0.00;0.00;;;;;;;12.00;63.86;101577.09;7366272;19;20758;-60
2022/09/16 05:10:14;;;;;;;0.00;0.00;;;;;;;11.97;63.84;101585.88;7365080;19;20086;-60
2022/09/16 05:12:39;;;;;;;0.00;0.00;;;;;;;11.94;63.61;101589.41;7366603;19;20771;-59
2022/09/16 05:15:06;;;;;;;0.00;0.00;;;;;;;11.92;63.88;101582.47;7366528;19;20545;-59
2022/09/16 05:17:32;;;;;;;0.00;0.00;;;;;;;11.88;63.88;101593.88;7367535;19;20687;-60
2022/09/16 05:19:57;;;;;;;0.00;0.00;;;;;;;11.84;63.55;101587.78;7368434;19;20010;-60
2022/09/16 05:22:22;;;;;;;0.00;0.00;;;;;;;11.79;63.88;101588.72;7366958;19;20010;-60
2022/09/16 05:24:48;;;;;;;0.00;0.00;;;;;;;11.81;63.67;101592.16;7367901;19;20093;-59
2022/09/16 05:27:14;;;;;;;0.00;0.00;;;;;;;11.78;63.84;101600.06;7367065;19;20003;-60
2022/09/16 05:29:39;;;;;;;0.00;0.00;;;;;;;11.76;64.00;101604.44;7365785;19;20013;-59
2022/09/16 05:32:05;;;;;;;0.00;0.00;;;;;;;11.74;63.85;101601.84;7365941;19;20010;-60
2022/09/16 05:34:30;;;;;;;0.00;0.00;;;;;;;11.68;63.82;101594.97;7365689;19;20027;-59
2022/09/16 05:36:55;;;;;;;0.00;0.00;;;;;;;11.59;63.95;101586.34;7365933;19;20019;-60
2022/09/16 05:39:22;;;;;;;0.00;0.00;;;;;;;11.65;63.96;101602.81;7365811;19;20003;-59
2022/09/16 05:41:49;;;;;;;0.00;0.00;;;;;;;11.59;63.99;101596.81;7366225;19;20421;-61
2022/09/16 05:44:14;;;;;;;0.00;0.00;;;;;;;11.61;64.35;101606.41;7365750;19;20053;-60
2022/09/16 05:46:40;;;;;;;0.00;0.00;;;;;;;11.47;64.51;101587.38;7367231;19;20074;-58
2022/09/16 05:49:07;;;;;;;0.00;0.00;;;;;;;11.55;64.17;101603.81;7365378;19;20724;-58
2022/09/16 05:51:32;;;;;;;0.00;0.00;;;;;;;11.43;64.07;101591.78;7367599;19;20010;-60
2022/09/16 05:53:58;;;;;;;0.00;0.00;;;;;;;11.51;63.91;101617.00;7361697;19;20764;-60
2022/09/16 05:56:25;;;;;;;0.00;0.00;;;;;;;11.47;64.57;101613.53;7365533;19;20018;-59
2022/09/16 05:58:58;;;;;;;0.00;0.00;;;;;;;11.43;63.99;101617.06;7362726;19;20021;-58
2022/09/16 06:01:26;;;;;;;0.00;0.00;;;;;;;11.40;64.05;101617.09;7295613;19;20032;-59
2022/09/16 06:03:53;;;;;;;0.00;0.00;;;;;;;11.40;64.34;101630.16;7352116;19;20014;-59
2022/09/16 06:06:25;;;;;;;0.00;0.00;;;;;;;11.35;63.91;101624.13;7358543;19;20030;-60
2022/09/16 06:08:54;;;;;;;0.00;0.00;;;;;;;11.22;64.46;101612.94;7359155;19;20034;-59
2022/09/16 06:11:20;;;;;;;0.00;0.00;;;;;;;11.26;64.64;101627.72;7362108;19;20033;-60
2022/09/16 06:13:46;;;;;;;0.00;0.00;;;;;;;11.29;64.67;101634.66;7361902;19;20613;-59
2022/09/16 06:16:15;;;;;;;0.00;0.00;;;;;;;11.26;64.32;101638.19;7360628;19;21244;-60
2022/09/16 06:18:40;;;;;;;0.00;0.00;;;;;;;11.26;64.81;101650.41;7359989;19;20016;-60
2022/09/16 06:21:09;;;;;;;0.00;0.00;;;;;;;11.25;64.45;101640.78;7359942;19;20011;-60
2022/09/16 06:23:36;;;;;;;0.00;0.00;;;;;;;11.22;65.09;101638.22;7362096;19;20010;-60
2022/09/16 06:26:08;;;;;;;0.00;0.00;;;;;;;11.23;64.44;101639.97;7362830;19;20026;-59
2022/09/16 06:28:34;;;;;;;0.00;0.00;;;;;;;11.16;64.97;101647.00;7360955;19;20010;-60
2022/09/16 06:31:09;;;;;;;0.00;0.00;;;;;;;11.20;64.34;101655.66;7356930;19;20002;-58
2022/09/16 06:33:36;;;;;;;0.00;0.00;;;;;;;11.16;64.94;101647.88;7356863;19;20018;-60
2022/09/16 06:36:13;;;;;;;0.00;0.00;;;;;;;11.20;64.48;101660.88;7362484;19;20019;-60
2022/09/16 06:38:39;;;;;;;0.00;0.00;;;;;;;11.16;65.29;101660.94;7361417;19;20014;-60
2022/09/16 06:41:07;;;;;;;0.00;0.00;;;;;;;11.18;65.28;101664.38;7360496;19;20526;-59
2022/09/16 06:43:33;;;;;;;0.00;0.00;;;;;;;11.18;65.17;101664.38;7351988;19;20010;-60
2022/09/16 06:46:14;;;;;;;0.00;0.00;;;;;;;11.20;65.28;101672.22;7362058;19;25475;-59
2022/09/16 06:48:42;;;;;;;0.00;0.00;;;;;;;11.21;65.20;101673.09;7358552;19;20504;-60
2022/09/16 06:51:15;;;;;;;0.00;0.00;;;;;;;11.23;64.66;101672.19;7363421;19;20396;-60
2022/09/16 06:53:41;;;;;;;0.00;0.00;;;;;;;11.23;65.47;101676.56;7356164;19;20010;-60
2022/09/16 06:56:11;;;;;;;0.00;0.00;;;;;;;11.24;65.01;101680.91;7365338;19;21204;-59
2022/09/16 06:58:38;;;;;;;0.00;0.00;;;;;;;11.18;65.27;101669.63;7362987;19;20026;-59
2022/09/16 07:01:11;;;;;;;0.00;0.00;;;;;;;11.30;65.31;101683.44;7351643;19;20042;-59
2022/09/16 07:03:39;;;;;;;0.00;0.00;;;;;;;11.17;65.88;101660.06;7341747;19;20852;-59
2022/09/16 07:06:05;;;;;;;0.00;0.00;;;;;;;11.32;65.78;101692.16;7353580;19;20019;-60
2022/09/16 07:08:31;;;;;;;0.00;0.00;;;;;;;11.29;65.56;101686.94;7365213;19;20017;-60
2022/09/16 07:11:06;;;;;;;0.00;0.00;;;;;;;11.34;65.05;101685.16;7363015;19;20059;-60
2022/09/16 07:13:32;;;;;;;0.00;0.00;;;;;;;11.38;65.56;101692.97;7363712;19;20006;-60
2022/09/16 07:16:03;;;;;;;0.00;0.00;;;;;;;11.41;65.76;101697.31;7367268;19;20059;-58
2022/09/16 07:18:29;;;;;;;0.00;0.00;;;;;;;11.43;65.72;101700.75;7369374;19;20031;-60
2022/09/16 07:21:14;;;;;;;0.00;0.00;;;;;;;11.51;64.91;101703.31;7364291;19;20018;-60
2022/09/16 07:23:41;;;;;;;0.00;0.00;;;;;;;11.51;65.44;101704.19;7370464;19;20010;-60
2022/09/16 07:26:14;;;;;;;0.00;0.00;;;;;;;11.56;65.47;101707.59;7367617;19;20037;-58
2022/09/16 07:28:40;;;;;;;0.00;0.00;;;;;;;11.59;65.71;101704.94;7368630;19;20022;-59
2022/09/16 07:31:11;;;;;;;0.03;0.03;;;;;;;11.64;65.55;101692.69;7367967;19;20014;-60
2022/09/16 07:33:39;;;;;;;0.00;0.00;;;;;;;11.69;65.68;101695.25;7368399;19;20021;-60
2022/09/16 07:36:06;;;;;;;0.00;0.00;;;;;;;11.73;65.99;101698.69;7367531;19;20070;-60
2022/09/16 07:38:31;;;;;;;0.00;0.00;;;;;;;11.78;65.99;101702.13;7368055;19;20002;-60
2022/09/16 07:41:11;;;;;;;0.00;0.00;;;;;;;11.85;65.02;101704.66;7368728;19;20018;-59
2022/09/16 07:43:39;;;;;;;0.00;0.00;;;;;;;11.87;65.89;101709.91;7368766;19;20006;-57
2022/09/16 07:46:05;;;;;;;0.00;0.00;;;;;;;11.92;65.73;101710.72;7368263;19;20017;-59
2022/09/16 07:48:32;;;;;;;0.00;0.00;;;;;;;11.99;65.67;101714.13;7369431;19;20797;-60
2022/09/16 07:51:00;;;;;;;0.00;0.00;;;;;;;12.04;65.91;101715.78;7368797;19;20035;-60
2022/09/16 07:53:28;;;;;;;0.00;0.00;;;;;;;11.98;65.90;101700.16;7367931;19;20043;-59
2022/09/16 07:55:54;;;;;;;0.00;0.00;;;;;;;12.09;65.74;101713.97;7366920;19;20011;-59
2022/09/16 07:58:20;;;;;;;0.00;0.00;;;;;;;12.19;65.60;101728.69;7366331;19;20463;-60
2022/09/16 08:00:47;;;;;;;0.00;0.00;;;;;;;12.27;65.84;101727.75;7367849;19;20021;-60
2022/09/16 08:03:13;;;;;;;0.00;0.00;;;;;;;12.25;65.65;101711.16;7366601;19;20036;-58
2022/09/16 08:05:38;;;;;;;0.00;0.00;;;;;;;12.36;65.36;101728.47;7369733;19;20035;-60
2022/09/16 08:08:04;;;;;;;0.00;0.00;;;;;;;12.46;65.23;101731.81;7366750;19;20033;-59
2022/09/16 08:10:29;;;;;;;0.00;0.00;;;;;;;12.47;65.62;101723.09;7367823;19;20133;-60
2022/09/16 08:12:55;;;;;;;0.00;0.00;;;;;;;12.58;65.84;101734.28;7366752;19;20818;-60
2022/09/16 08:15:20;;;;;;;0.00;0.00;;;;;;;12.68;65.63;101730.63;7365889;19;20006;-59
2022/09/16 08:17:45;;;;;;;0.00;0.00;;;;;;;12.83;65.25;101731.31;7367088;19;20003;-60
2022/09/16 08:20:11;;;;;;;0.00;0.00;;;;;;;12.99;65.64;101736.25;7365629;19;20029;-60
2022/09/16 08:22:36;;;;;;;0.00;0.00;;;;;;;13.18;64.88;101736.84;7365571;19;20850;-60
2022/09/16 08:25:02;;;;;;;0.00;0.00;;;;;;;13.40;64.65;101736.50;7366057;19;20018;-59
2022/09/16 08:27:27;;;;;;;0.00;0.00;;;;;;;13.63;63.98;101744.78;7364918;19;20447;-59
2022/09/16 08:29:53;;;;;;;0.00;0.00;;;;;;;13.72;63.79;101722.75;7365777;19;20010;-58
2022/09/16 08:32:18;;;;;;;0.00;0.00;;;;;;;14.09;63.38;101754.44;7359606;19;20014;-57
2022/09/16 08:34:44;;;;;;;0.00;0.00;;;;;;;14.34;63.15;101759.13;7365550;19;20576;-57
2022/09/16 08:37:09;;;;;;;0.00;0.00;;;;;;;14.54;62.17;101751.72;7362447;19;20050;-55
2022/09/16 08:39:34;;;;;;;0.00;0.00;;;;;;;14.69;62.26;101740.00;7364670;19;20039;-58
2022/09/16 08:42:05;;;;;;;0.00;0.00;;;;;;;15.15;61.76;101767.81;7365469;19;20086;-58
2022/09/16 08:44:46;;;;;;;0.00;0.00;;;;;;;15.44;61.41;101767.97;7363904;19;20958;-58
2022/09/16 08:47:42;;;;;;;0.00;0.00;;;;;;;15.81;61.05;101767.91;7363677;19;20010;-58
2022/09/16 08:50:24;;;;;;;0.00;0.00;;;;;;;16.13;60.61;101768.75;7261867;19;2004406;-58
2022/09/16 08:52:51;;;;;;;0.00;0.00;;;;;;;16.31;59.02;101768.19;7364042;19;20018;-57
2022/09/16 08:55:30;;;;;;;0.00;0.00;;;;;;;16.64;59.29;101765.47;7362028;19;20020;-57
2022/09/16 08:58:03;;;;;;;0.00;0.00;;;;;;;16.90;58.87;101769.09;7365880;19;20007;-58
2022/09/16 09:00:29;;;;;;;0.00;0.00;;;;;;;17.18;58.05;101767.28;7364546;19;20829;-58
2022/09/16 09:03:04;;;;;;;0.00;0.00;;;;;;;17.54;57.50;101770.47;7364529;19;20134;-58
2022/09/16 09:05:42;;;;;;;0.00;0.00;;;;;;;17.86;56.72;101781.72;7358885;19;20007;-58
2022/09/16 09:08:45;;;;;;;0.00;0.00;;;;;;;18.23;58.04;101778.56;7363813;19;20010;-58
2022/09/16 09:11:40;;;;;;;0.00;0.00;;;;;;;18.55;56.89;101787.06;7262464;19;2004357;-58
2022/09/16 09:14:32;;;;;;;0.00;0.00;;;;;;;18.90;57.09;101791.84;7261363;19;2004546;-59
2022/09/16 09:17:30;;;;;;;0.00;0.00;;;;;;;19.06;54.41;101783.28;7259953;19;2004596;-58
2022/09/16 09:20:12;;;;;;;0.00;0.00;;;;;;;19.53;54.75;101777.81;7260247;19;2004445;-56
2022/09/16 09:23:08;;;;;;;0.10;0.10;;;;;;;19.88;55.67;101785.13;7362231;19;20010;-59
2022/09/16 09:25:53;;;;;;;0.10;0.10;;;;;;;20.09;51.32;101785.09;7263494;19;2004625;-58
2022/09/16 09:28:46;;;;;;;0.10;0.10;;;;;;;20.46;52.90;101782.47;7257707;19;2004447;-59
2022/09/16 09:31:49;;;;;;;0.10;0.10;;;;;;;20.81;53.58;101787.91;7264770;19;2004554;-59
2022/09/16 09:34:33;;;;;;;0.00;0.00;;;;;;;21.11;52.99;101782.03;7265372;19;2004525;-57
2022/09/16 09:37:20;;;;;;;0.05;0.05;;;;;;;21.30;49.07;101785.53;7362221;19;20122;-57
2022/09/16 09:39:51;;;;;;;;;;;;;;;21.74;54.88;101791.22;7364330;19;20030;-59
2022/09/16 09:42:38;;;;;;;0.00;0.00;;;;;;;21.85;49.63;101781.84;7363715;19;19907;-57
2022/09/16 09:45:14;;;;;;;0.10;0.10;;;;;;;22.03;46.40;101792.34;7363249;19;20086;-59
2022/09/16 09:47:47;;;;;;;0.00;0.00;;;;;;;22.39;48.24;101793.13;7363691;19;20011;-57
2022/09/16 09:50:25;;;;;;;0.00;0.00;;;;;;;22.67;47.10;101795.13;7362648;19;20345;-57
2022/09/16 09:53:11;;;;;;;0.00;0.00;;;;;;;22.78;44.16;101790.06;7365137;19;20010;-58
2022/09/16 09:55:38;;;;;;;0.10;0.10;;;;;;;23.04;43.96;101785.94;7362072;19;20029;-57
2022/09/16 09:58:18;;;;;;;;;;;;;;;23.47;50.54;101789.63;7364352;19;20695;-58
2022/09/16 10:00:44;;;;;;;0.08;0.08;;;;;;;23.56;43.80;101793.53;7362505;19;19934;-57
2022/09/16 10:03:13;;;;;;;0.00;0.00;;;;;;;23.87;43.78;101797.88;7364663;19;20018;-58
2022/09/16 10:05:39;;;;;;;0.10;0.10;;;;;;;24.06;41.88;101790.47;7361462;19;20866;-58
2022/09/16 10:08:10;;;;;;;0.00;0.00;;;;;;;24.44;43.85;101786.41;7363935;19;20006;-58
2022/09/16 10:10:47;;;;;;;0.00;0.00;;;;;;;24.65;42.72;101794.84;7362578;19;20037;-58
2022/09/16 10:13:13;;;;;;;0.10;0.10;;;;;;;24.79;39.81;101802.81;7363740;19;20047;-59
2022/09/16 10:15:39;;;;;;;0.10;0.10;;;;;;;25.03;39.16;101806.53;7362813;19;21618;-57
2022/09/16 10:18:23;;;;;;;0.10;0.10;;;;;;;25.42;42.61;101802.19;7363432;19;20682;-58
2022/09/16 10:20:58;;;;;;;0.10;0.10;;;;;;;25.61;41.24;101800.00;7363835;19;20006;-58
2022/09/16 10:23:25;;;;;;;0.10;0.10;;;;;;;25.70;37.78;101801.19;7363478;19;20802;-58
2022/09/16 10:26:08;;;;;;;0.00;0.00;;;;;;;25.98;41.58;101800.13;7363835;19;20029;-58
2022/09/16 10:28:34;;;;;;;0.10;0.10;;;;;;;25.89;35.96;101784.72;7359385;19;20573;-58
2022/09/16 10:31:00;;;;;;;0.05;0.05;;;;;;;26.04;36.12;101794.34;7349634;19;20015;-58
2022/09/16 10:33:41;;;;;;;0.10;0.10;;;;;;;26.34;40.71;101795.81;7350759;19;20689;-58
2022/09/16 10:36:10;;;;;;;0.10;0.10;;;;;;;26.49;35.87;101797.41;7351924;19;20018;-57
2022/09/16 10:38:47;;;;;;;0.08;0.08;;;;;;;26.84;38.17;101794.84;7352324;19;20015;-58
2022/09/16 10:41:19;;;;;;;0.10;0.10;;;;;;;27.00;36.24;101799.91;7352650;19;20492;-59
2022/09/16 10:43:55;;;;;;;0.10;0.10;;;;;;;27.23;37.35;101805.41;7353611;19;20010;-58
2022/09/16 10:46:20;;;;;;;0.10;0.10;;;;;;;27.23;32.77;101794.69;7363018;19;20498;-58
2022/09/16 10:48:48;;;;;;;0.00;0.00;;;;;;;27.35;33.83;101788.38;7356447;19;20013;-58
2022/09/16 10:51:25;;;;;;;0.10;0.10;;;;;;;27.55;35.39;101789.53;7365726;19;20547;-59
2022/09/16 10:53:54;;;;;;;0.10;0.10;;;;;;;27.60;33.83;101776.63;7366348;19;20010;-58
2022/09/16 10:56:28;;;;;;;0.10;0.10;;;;;;;27.80;33.91;101783.16;7364554;19;20006;-57
2022/09/16 10:59:10;;;;;;;0.00;0.00;;;;;;;28.02;36.88;101780.47;7365098;19;20010;-57
2022/09/16 11:01:59;;;;;;;0.00;0.00;;;;;;;28.14;34.79;101782.19;7366547;19;20007;-58
2022/09/16 11:05:01;;;;;;;0.10;0.10;;;;;;;28.40;37.21;101782.81;7366152;19;21143;-58
2022/09/16 11:07:34;;;;;;;0.10;0.10;;;;;;;28.53;34.03;101781.81;7261145;19;2004251;-58
2022/09/16 11:10:08;;;;;;;0.00;0.00;;;;;;;28.60;33.92;101786.56;7365232;19;20041;-58
2022/09/16 11:12:44;;;;;;;0.10;0.10;;;;;;;28.56;33.44;101793.16;7365710;19;20018;-59
2022/09/16 11:15:38;;;;;;;0.05;0.05;;;;;;;28.63;35.41;101788.97;7364520;19;20010;-57
2022/09/16 11:18:09;;;;;;;0.10;0.10;;;;;;;28.60;31.08;101797.31;7263924;19;2004497;-57
2022/09/16 11:20:53;;;;;;;0.10;0.10;;;;;;;28.73;30.42;101805.22;7363212;19;20011;-58
2022/09/16 11:23:48;;;;;;;0.00;0.00;;;;;;;29.01;34.16;101801.16;7365136;19;20018;-58
2022/09/16 11:26:44;;;;;;;0.00;0.00;;;;;;;29.27;35.13;101798.94;7262393;19;2004476;-58
2022/09/16 11:29:30;;;;;;;0.10;0.10;;;;;;;29.47;33.53;101799.94;7262660;19;2004253;-58
2022/09/16 11:32:06;;;;;;;0.10;0.10;;;;;;;29.75;32.67;101800.28;7364812;19;20003;-58
2022/09/16 11:34:45;;;;;;;;;;;;;;;30.31;37.11;101816.03;7364022;19;20018;-59
2022/09/16 11:37:33;;;;;;;0.00;0.00;;;;;;;30.48;32.03;101801.94;7363084;19;20442;-58
2022/09/16 11:40:29;;;;;;;0.00;0.00;;;;;;;30.60;32.10;101805.34;7363221;19;20014;-57
2022/09/16 11:43:32;;;;;;;0.00;0.00;;;;;;;30.60;32.63;101798.13;7261936;19;2004431;-57
2022/09/16 11:46:19;;;;;;;0.10;0.10;;;;;;;30.66;32.33;101805.63;7261310;19;2004423;-58
2022/09/16 11:49:02;;;;;;;0.00;0.00;;;;;;;30.74;31.32;101805.84;7364143;19;20026;-58
2022/09/16 11:51:49;;;;;;;0.00;0.00;;;;;;;30.98;31.22;101804.59;7363556;19;20019;-58